Time;durP1;ratioP1;P1;durP2;ratioP2;P2;SDS_P1;SDS_P2;PMS_P1;PMS_P2;Temp;Humidity;BMP_temperature;BMP_pressure;BME280_temperature;BME280_humidity;BME280_pressure;Samples;Min_cycle;Max_cycle;Signal;HPM_P1;HPM_P2
2022/11/22 00:00:47;;;;;;;;;;;;;;;18.68;65.64;100263.31;7403956;19;1584;-69
2022/11/22 00:03:15;;;;;;;;;;;;;;;18.64;65.21;100263.72;7404196;19;1671;-69
2022/11/22 00:05:43;;;;;;;;;;;;;;;18.66;65.60;100272.47;7402997;19;1700;-69
2022/11/22 00:08:14;;;;;;;;;;;;;;;18.65;65.66;100279.66;7403780;19;1453;-69
2022/11/22 00:10:43;;;;;;;;;;;;;;;18.65;65.33;100285.03;7401260;19;1857;-69
2022/11/22 00:13:11;;;;;;;;;;;;;;;18.62;65.01;100288.00;7403692;19;1720;-69
2022/11/22 00:15:39;;;;;;;;;;;;;;;18.63;64.95;100283.47;7403972;19;1454;-69
2022/11/22 00:18:08;;;;;;;;;;;;;;;18.63;65.14;100289.69;7404251;19;1454;-69
2022/11/22 00:20:36;;;;;;;;;;;;;;;18.63;64.87;100272.78;7403633;19;1767;-69
2022/11/22 00:23:05;;;;;;;;;;;;;;;18.60;65.03;100268.56;7403189;19;1728;-69
2022/11/22 00:25:36;;;;;;;;;;;;;;;18.63;64.76;100270.94;7400639;19;1661;-69
2022/11/22 00:28:04;;;;;;;;;;;;;;;18.58;65.01;100281.25;7403047;19;1454;-69
2022/11/22 00:30:33;;;;;;;;;;;;;;;18.60;64.66;100292.66;7402247;19;1948;-69
2022/11/22 00:33:01;;;;;;;;;;;;;;;18.59;65.09;100285.59;7402715;19;1625;-69
2022/11/22 00:35:29;;;;;;;;;;;;;;;18.58;65.30;100293.78;7403724;19;1577;-69
2022/11/22 00:37:58;;;;;;;;;;;;;;;18.59;65.02;100292.78;7403072;19;1799;-69
2022/11/22 00:40:26;;;;;;;;;;;;;;;18.60;64.73;100305.19;7402444;19;1613;-69
2022/11/22 00:42:57;;;;;;;;;;;;;;;18.63;64.81;100305.75;7402405;19;1553;-69
2022/11/22 00:45:25;;;;;;;;;;;;;;;18.63;64.71;100313.78;7403599;19;1719;-69
2022/11/22 00:47:53;;;;;;;;;;;;;;;18.61;64.14;100304.22;7402195;19;1609;-68
2022/11/22 00:50:22;;;;;;;;;;;;;;;18.59;64.40;100296.31;7402194;19;1855;-68
2022/11/22 00:52:50;;;;;;;;;;;;;;;18.61;64.79;100299.69;7401697;19;1610;-68
2022/11/22 00:55:18;;;;;;;;;;;;;;;18.60;64.68;100303.38;7402441;19;1582;-68
2022/11/22 00:57:46;;;;;;;;;;;;;;;18.63;64.58;100305.75;7401656;19;1589;-68
2022/11/22 01:00:18;;;;;;;;;;;;;;;18.60;64.46;100302.50;7402034;19;1605;-68
2022/11/22 01:02:47;;;;;;;;;;;;;;;18.61;64.79;100299.69;7398169;19;1498;-69
2022/11/22 01:05:16;;;;;;;;;;;;;;;18.61;64.61;100301.53;7401814;19;1571;-68
2022/11/22 01:07:45;;;;;;;;;;;;;;;18.60;64.34;100298.00;7401447;19;1444;-69
2022/11/22 01:10:13;;;;;;;;;;;;;;;18.58;64.64;100283.06;7400463;19;1859;-69
2022/11/22 01:12:42;;;;;;;;;;;;;;;18.57;64.65;100300.97;7402099;19;1438;-69
2022/11/22 01:15:11;;;;;;;;;;;;;;;18.55;64.43;100305.63;7401312;19;1597;-68
2022/11/22 01:17:42;;;;;;;;;;;;;;;18.55;64.26;100281.53;7399345;19;1752;-69
2022/11/22 01:20:11;;;;;;;;;;;;;;;18.55;64.22;100300.25;7402496;19;1654;-69
2022/11/22 01:22:39;;;;;;;;;;;;;;;18.54;64.00;100290.53;7400909;19;1680;-69
2022/11/22 01:25:09;;;;;;;;;;;;;;;18.57;64.47;100290.25;7400351;19;1808;-68
2022/11/22 01:27:37;;;;;;;;;;;;;;;18.56;63.68;100298.44;7401080;19;1458;-69
2022/11/22 01:30:05;;;;;;;;;;;;;;;18.58;63.81;100286.59;7399947;19;1857;-68
2022/11/22 01:32:34;;;;;;;;;;;;;;;18.55;64.08;100296.75;7401865;19;1559;-68
2022/11/22 01:35:05;;;;;;;;;;;;;;;18.57;64.10;100287.56;7401824;19;1589;-68
2022/11/22 01:37:33;;;;;;;;;;;;;;;18.57;63.98;100292.94;7406144;19;1661;-68
2022/11/22 01:40:01;;;;;;;;;;;;;;;18.56;63.88;100293.06;7407846;19;1747;-68
2022/11/22 01:42:41;;;;;;;;;;;;;;;18.53;63.79;100299.56;7407668;19;1435;-69
2022/11/22 01:45:24;;;;;;;;;;;;;;;18.52;63.67;100295.19;7408605;19;1731;-69
2022/11/22 01:47:52;;;;;;;;;;;;;;;18.51;63.93;100290.84;7406557;19;1744;-69
2022/11/22 01:50:24;;;;;;;;;;;;;;;18.52;63.59;100291.66;7408407;19;1863;-68
2022/11/22 01:52:52;;;;;;;;;;;;;;;18.53;63.86;100283.50;7407877;19;1582;-68
2022/11/22 01:55:20;;;;;;;;;;;;;;;18.55;64.04;100292.22;7407432;19;1644;-68
2022/11/22 01:57:49;;;;;;;;;;;;;;;18.55;63.52;100294.06;7407690;19;1524;-68
2022/11/22 02:00:18;;;;;;;;;;;;;;;18.54;63.42;100303.91;7407725;19;1620;-68
2022/11/22 02:02:48;;;;;;;;;;;;;;;19.35;62.81;100287.31;7405760;19;1541;-68
2022/11/22 02:05:18;;;;;;;;;;;;;;;19.75;61.66;100293.31;7409365;19;1715;-68
2022/11/22 02:07:51;;;;;;;;;;;;;;;20.65;59.17;100305.72;7407366;19;1540;-68
2022/11/22 02:10:20;;;;;;;;;;;;;;;21.18;58.33;100292.22;7405729;19;1837;-69
2022/11/22 02:12:50;;;;;;;;;;;;;;;21.27;58.34;100299.31;7405716;19;1595;-68
2022/11/22 02:15:18;;;;;;;;;;;;;;;20.97;60.21;100301.53;7402109;19;1697;-76
2022/11/22 02:17:47;;;;;;;;;;;;;;;20.84;60.94;100288.50;7405931;19;1545;-69
2022/11/22 02:20:16;;;;;;;;;;;;;;;20.89;61.55;100304.19;7406836;19;1597;-69
2022/11/22 02:22:50;;;;;;;;;;;;;;;20.78;62.87;100315.19;7403157;19;1672;-70
2022/11/22 02:25:23;;;;;;;;;;;;;;;20.06;63.74;100324.16;7406524;19;1673;-69
2022/11/22 02:27:54;;;;;;;;;;;;;;;19.57;64.74;100312.03;7407252;19;1528;-70
2022/11/22 02:30:23;;;;;;;;;;;;;;;19.37;65.12;100319.34;7406011;19;1853;-70
2022/11/22 02:32:51;;;;;;;;;;;;;;;19.23;65.63;100312.63;7406150;19;1538;-69
2022/11/22 02:35:21;;;;;;;;;;;;;;;19.16;65.24;100324.91;7407539;19;1558;-70
2022/11/22 02:37:51;;;;;;;;;;;;;;;19.11;65.74;100314.66;7406246;19;1562;-70
2022/11/22 02:40:20;;;;;;;;;;;;;;;19.15;66.42;100317.88;7406249;19;1676;-70
2022/11/22 02:42:50;;;;;;;;;;;;;;;19.18;66.37;100317.56;7406702;19;1470;-69
2022/11/22 02:45:21;;;;;;;;;;;;;;;19.16;65.82;100307.03;7406087;19;1629;-69
2022/11/22 02:47:49;;;;;;;;;;;;;;;19.06;65.93;100314.28;7404775;19;1593;-69
2022/11/22 02:50:18;;;;;;;;;;;;;;;19.02;66.69;100321.75;7406385;19;1869;-69
2022/11/22 02:52:46;;;;;;;;;;;;;;;19.02;66.66;100321.75;7405733;19;1547;-69
2022/11/22 02:55:14;;;;;;;;;;;;;;;19.06;66.96;100328.50;7406046;19;1586;-69
2022/11/22 02:57:43;;;;;;;;;;;;;;;19.05;66.39;100326.81;7405422;19;1457;-69
2022/11/22 03:00:12;;;;;;;;;;;;;;;19.03;66.68;100326.09;7406483;19;1629;-70
2022/11/22 03:02:43;;;;;;;;;;;;;;;18.96;66.64;100333.06;7398395;19;1640;-69
2022/11/22 03:05:11;;;;;;;;;;;;;;;19.00;67.00;100344.31;7406267;19;1727;-69
2022/11/22 03:07:40;;;;;;;;;;;;;;;18.99;66.73;100327.38;7403526;19;1774;-69
2022/11/22 03:10:08;;;;;;;;;;;;;;;18.98;66.87;100331.06;7404881;19;1861;-69
2022/11/22 03:12:36;;;;;;;;;;;;;;;18.97;66.87;100340.09;7405662;19;1525;-69
2022/11/22 03:15:05;;;;;;;;;;;;;;;19.10;66.80;100322.84;7404882;19;1691;-69
2022/11/22 03:17:33;;;;;;;;;;;;;;;19.71;64.94;100322.28;7405156;19;1589;-69
2022/11/22 03:20:05;;;;;;;;;;;;;;;20.63;62.39;100323.81;7407023;19;1521;-69
2022/11/22 03:22:33;;;;;;;;;;;;;;;21.00;61.93;100329.94;7404517;19;1492;-69
2022/11/22 03:25:01;;;;;;;;;;;;;;;21.18;61.47;100333.38;7404699;19;1767;-70
2022/11/22 03:27:30;;;;;;;;;;;;;;;21.34;61.33;100339.84;7405692;19;1589;-69
2022/11/22 03:29:58;;;;;;;;;;;;;;;20.83;63.12;100339.72;7404115;19;1855;-69
2022/11/22 03:32:26;;;;;;;;;;;;;;;20.45;64.40;100331.03;7404917;19;1605;-70
2022/11/22 03:34:54;;;;;;;;;;;;;;;19.85;67.19;100345.06;7406752;19;1514;-69
2022/11/22 03:37:25;;;;;;;;;;;;;;;19.46;67.59;100345.28;7405477;19;1644;-69
2022/11/22 03:39:54;;;;;;;;;;;;;;;19.26;68.44;100345.34;7404018;19;1589;-69
2022/11/22 03:42:22;;;;;;;;;;;;;;;19.08;68.53;100345.28;7404690;19;1730;-69
2022/11/22 03:44:50;;;;;;;;;;;;;;;19.00;69.16;100347.84;7403795;19;1608;-69
2022/11/22 03:47:18;;;;;;;;;;;;;;;18.96;69.19;100346.44;7404002;19;1529;-69
2022/11/22 03:49:47;;;;;;;;;;;;;;;18.95;69.61;100350.09;7405574;19;1483;-69
2022/11/22 03:52:15;;;;;;;;;;;;;;;18.89;70.25;100342.66;7401767;19;1846;-69
2022/11/22 03:54:46;;;;;;;;;;;;;;;18.83;70.07;100325.31;7403174;19;1657;-69
2022/11/22 03:57:15;;;;;;;;;;;;;;;18.80;70.20;100338.16;7404446;19;1640;-69
2022/11/22 03:59:44;;;;;;;;;;;;;;;18.77;70.47;100333.06;7403078;19;1450;-69
2022/11/22 04:02:12;;;;;;;;;;;;;;;18.77;70.44;100343.78;7402630;19;1501;-69
2022/11/22 04:04:40;;;;;;;;;;;;;;;18.78;70.62;100345.47;7405391;19;1475;-69
2022/11/22 04:07:09;;;;;;;;;;;;;;;18.73;70.79;100345.91;7403084;19;1680;-69
2022/11/22 04:09:37;;;;;;;;;;;;;;;18.67;71.06;100339.28;7402825;19;1704;-69
2022/11/22 04:12:08;;;;;;;;;;;;;;;18.68;70.94;100341.00;7402393;19;1865;-69
2022/11/22 04:17:39;;;;;;;;;;;;;;;18.68;70.95;100356.19;7401795;19;1435;-69
2022/11/22 04:22:56;;;;;;;;;;;;;;;18.58;70.97;100345.53;7403799;19;1385;-57
2022/11/22 04:25:22;;;;;;;;;;;;;;;18.82;70.84;100368.31;7403576;19;1640;-69
2022/11/22 04:27:53;;;;;;;;;;;;;;;19.47;69.13;100357.66;7402936;19;1560;-57
2022/11/22 04:30:21;;;;;;;;;;;;;;;20.25;66.76;100354.53;7403565;19;1866;-69
2022/11/22 04:33:07;;;;;;;;;;;;;;;20.39;66.02;100364.75;7402903;19;1526;-69
2022/11/22 04:35:35;;;;;;;;;;;;;;;20.22;66.74;100373.63;7404128;19;1529;-69
2022/11/22 04:38:03;;;;;;;;;;;;;;;20.43;66.57;100370.63;7402478;19;1649;-69
2022/11/22 04:40:32;;;;;;;;;;;;;;;20.60;66.13;100375.16;7401894;19;1468;-57
2022/11/22 04:45:49;;;;;;;;;;;;;;;19.66;69.07;100373.66;7398247;19;1563;-57
2022/11/22 04:48:18;;;;;;;;;;;;;;;19.32;70.09;100372.53;7402999;19;1739;-57
2022/11/22 04:53:27;;;;;;;;;;;;;;;18.97;70.86;100388.31;7404821;19;1314;-57
2022/11/22 04:55:56;;;;;;;;;;;;;;;18.92;71.30;100379.03;7402828;19;1767;-57
2022/11/22 04:58:27;;;;;;;;;;;;;;;18.86;70.95;100375.94;7400613;19;1530;-57
2022/11/22 05:00:55;;;;;;;;;;;;;;;18.83;71.26;100388.78;7401359;19;1489;-57
2022/11/22 05:03:24;;;;;;;;;;;;;;;18.80;70.96;100399.78;7401723;19;1573;-57
2022/11/22 05:05:52;;;;;;;;;;;;;;;18.75;71.28;100400.19;7402728;19;1562;-57
2022/11/22 05:08:21;;;;;;;;;;;;;;;18.73;71.45;100422.75;7401330;19;1633;-57
2022/11/22 05:10:58;;;;;;;;;;;;;;;18.71;71.53;100414.84;7401249;19;1849;-57
2022/11/22 05:13:31;;;;;;;;;;;;;;;18.67;71.50;100416.94;7409420;19;1502;-57
2022/11/22 05:16:00;;;;;;;;;;;;;;;18.65;71.82;100421.59;7409359;19;1355;-57
2022/11/22 05:18:29;;;;;;;;;;;;;;;18.63;71.75;100428.09;7409395;19;1212;-57
2022/11/22 05:20:58;;;;;;;;;;;;;;;18.60;71.48;100439.94;7410445;19;1383;-57
2022/11/22 05:26:08;;;;;;;;;;;;;;;18.58;72.47;100446.41;7409064;19;1271;-57
2022/11/22 05:28:40;;;;;;;;;;;;;;;18.55;71.99;100431.47;7409518;19;1668;-57
2022/11/22 05:31:09;;;;;;;;;;;;;;;18.53;72.17;100457.56;7407556;19;1870;-57
2022/11/22 05:33:39;;;;;;;;;;;;;;;18.56;72.01;100449.25;7408305;19;1529;-57
2022/11/22 05:36:08;;;;;;;;;;;;;;;19.02;70.95;100460.22;7407922;19;1616;-57
2022/11/22 05:38:37;;;;;;;;;;;;;;;19.68;68.87;100454.00;7408325;19;1466;-57
2022/11/22 05:41:06;;;;;;;;;;;;;;;20.13;67.50;100465.81;7408344;19;1434;-57
2022/11/22 05:43:35;;;;;;;;;;;;;;;20.14;67.50;100462.97;7408419;19;1430;-57
2022/11/22 05:46:11;;;;;;;;;;;;;;;20.31;66.88;100469.38;7408395;19;1791;-57
2022/11/22 05:48:40;;;;;;;;;;;;;;;20.48;66.51;100465.03;7408205;19;1673;-57
2022/11/22 05:51:09;;;;;;;;;;;;;;;20.60;66.48;100463.00;7407315;19;1891;-57
2022/11/22 05:53:38;;;;;;;;;;;;;;;20.08;67.90;100474.31;7408001;19;1376;-57
2022/11/22 05:56:07;;;;;;;;;;;;;;;19.57;69.69;100448.81;7408912;19;1513;-57
2022/11/22 05:58:39;;;;;;;;;;;;;;;19.29;70.07;100467.53;7405250;19;1763;-57
2022/11/22 06:01:11;;;;;;;;;;;;;;;19.09;70.90;100477.44;7406544;19;1538;-57
2022/11/22 06:03:39;;;;;;;;;;;;;;;18.99;71.14;100477.44;7407721;19;1422;-57
2022/11/22 06:06:09;;;;;;;;;;;;;;;19.05;69.47;100476.88;7406862;19;1502;-58
2022/11/22 06:08:38;;;;;;;;;;;;;;;19.16;70.20;100488.44;7405670;19;1384;-58
2022/11/22 06:11:07;;;;;;;;;;;;;;;19.10;70.77;100491.69;7405554;19;1845;-57
2022/11/22 06:13:36;;;;;;;;;;;;;;;19.10;71.10;100478.28;7400958;19;1471;-57
2022/11/22 06:16:08;;;;;;;;;;;;;;;19.07;70.51;100474.91;7406817;19;1574;-56
2022/11/22 06:18:39;;;;;;;;;;;;;;;19.05;71.33;100476.03;7405705;19;1692;-57
2022/11/22 06:21:08;;;;;;;;;;;;;;;19.06;71.65;100483.94;7406272;19;1618;-57
2022/11/22 06:23:37;;;;;;;;;;;;;;;19.05;71.33;100476.88;7404168;19;1423;-52
2022/11/22 06:26:09;;;;;;;;;;;;;;;19.12;71.73;100497.75;7405766;19;1439;-55
2022/11/22 06:28:38;;;;;;;;;;;;;;;19.78;69.21;100488.88;7406428;19;1708;-56
2022/11/22 06:31:07;;;;;;;;;;;;;;;20.24;68.34;100477.19;7406182;19;1869;-57
2022/11/22 06:33:39;;;;;;;;;;;;;;;20.51;67.79;100475.44;7405648;19;1427;-57
2022/11/22 06:36:08;;;;;;;;;;;;;;;20.80;67.21;100480.63;7400939;19;1633;-54
2022/11/22 06:38:37;;;;;;;;;;;;;;;20.78;67.12;100471.88;7405253;19;1506;-57
2022/11/22 06:41:06;;;;;;;;;;;;;;;20.88;66.97;100503.22;7403215;19;1482;-56
2022/11/22 06:43:35;;;;;;;;;;;;;;;21.04;66.80;100509.56;7406390;19;1621;-57
2022/11/22 06:46:04;;;;;;;;;;;;;;;21.03;66.84;100507.06;7404964;19;1685;-57
2022/11/22 06:48:34;;;;;;;;;;;;;;;20.84;67.11;100502.69;7405689;19;1320;-56
2022/11/22 06:51:06;;;;;;;;;;;;;;;20.76;67.36;100522.25;7405860;19;1849;-56
2022/11/22 06:53:35;;;;;;;;;;;;;;;20.80;67.21;100509.34;7405843;19;1400;-57
2022/11/22 06:56:04;;;;;;;;;;;;;;;20.75;67.59;100515.19;7406699;19;1419;-56
2022/11/22 06:58:32;;;;;;;;;;;;;;;20.78;67.51;100509.50;7402800;19;1479;-56
2022/11/22 07:01:01;;;;;;;;;;;;;;;20.69;67.84;100510.44;7403807;19;1550;-56
2022/11/22 07:03:30;;;;;;;;;;;;;;;20.89;67.66;100515.63;7405157;19;1558;-57
2022/11/22 07:05:58;;;;;;;;;;;;;;;20.86;67.69;100508.75;7404008;19;1546;-57
2022/11/22 07:08:30;;;;;;;;;;;;;;;20.94;67.68;100498.06;7404040;19;1625;-57
2022/11/22 07:11:03;;;;;;;;;;;;;;;20.87;67.83;100518.50;7407305;19;1866;-57
2022/11/22 07:13:31;;;;;;;;;;;;;;;20.94;68.42;100502.59;7405375;19;1478;-58
2022/11/22 07:16:00;;;;;;;;;;;;;;;21.08;67.64;100525.41;7402500;19;1304;-73
2022/11/22 07:18:29;;;;;;;;;;;;;;;21.06;67.36;100523.69;7403799;19;1351;-80
2022/11/22 07:21:02;;;;;;;;;;;;;;;21.01;67.74;100509.91;7403147;19;1310;-76
2022/11/22 07:23:33;;;;;;;;;;;;;;;21.05;67.44;100521.19;7404543;19;1664;-74
2022/11/22 07:26:01;;;;;;;;;;;;;;;21.10;67.52;100502.72;7404909;19;1371;-72
2022/11/22 07:28:30;;;;;;;;;;;;;;;21.15;67.22;100499.56;7404297;19;1642;-70
2022/11/22 07:31:00;;;;;;;;;;;;;;;21.21;66.87;100521.31;7404759;19;1629;-73
2022/11/22 07:33:28;;;;;;;;;;;;;;;21.34;66.33;100526.28;7402278;19;1843;-73
2022/11/22 07:35:57;;;;;;;;;;;;;;;21.33;66.76;100524.59;7403996;19;1345;-73
2022/11/22 07:38:25;;;;;;;;;;;;;;;21.42;65.85;100529.03;7405608;19;1067;-71
2022/11/22 07:40:56;;;;;;;;;;;;;;;21.31;66.70;100545.44;7405226;19;1767;-75
2022/11/22 07:43:28;;;;;;;;;;;;;;;21.38;66.79;100543.78;7402048;19;1848;-70
2022/11/22 07:45:59;;;;;;;;;;;;;;;21.62;66.03;100518.91;7404549;19;1468;-75
2022/11/22 07:48:28;;;;;;;;;;;;;;;21.71;66.16;100538.69;7404766;19;1614;-77
2022/11/22 07:50:56;;;;;;;;;;;;;;;21.67;66.68;100534.63;7405525;19;1718;-75
2022/11/22 07:53:24;;;;;;;;;;;;;;;21.25;67.75;100540.69;7404058;19;1874;-75
2022/11/22 07:55:52;;;;;;;;;;;;;;;21.01;68.47;100519.81;7404397;19;1569;-70
2022/11/22 07:58:23;;;;;;;;;;;;;;;20.75;69.15;100514.34;7402993;19;1555;-67
2022/11/22 08:00:52;;;;;;;;;;;;;;;20.61;67.50;100534.50;7402720;19;1509;-73
2022/11/22 08:03:20;;;;;;;;;;;;;;;20.36;66.09;100515.41;7401781;19;1908;-70
2022/11/22 08:05:48;;;;;;;;;;;;;;;20.36;68.51;100530.69;7402101;19;1376;-74
2022/11/22 08:08:16;;;;;;;;;;;;;;;20.32;67.03;100534.69;7399319;19;1791;-71
2022/11/22 08:10:45;;;;;;;;;;;;;;;20.21;67.79;100531.22;7392870;19;1736;-72
2022/11/22 08:13:14;;;;;;;;;;;;;;;20.11;68.27;100525.00;7400943;19;1867;-70
2022/11/22 08:15:47;;;;;;;;;;;;;;;20.08;68.69;100519.13;7401765;19;1375;-71
2022/11/22 08:18:16;;;;;;;;;;;;;;;20.03;68.34;100541.88;7402858;19;1406;-72
2022/11/22 08:20:44;;;;;;;;;;;;;;;20.02;68.56;100536.66;7404015;19;1146;-71
2022/11/22 08:23:13;;;;;;;;;;;;;;;20.02;68.73;100528.59;7403206;19;1779;-73
2022/11/22 08:25:41;;;;;;;;;;;;;;;20.26;68.47;100539.63;7402423;19;1683;-71
2022/11/22 08:28:09;;;;;;;;;;;;;;;20.94;66.07;100513.34;7402599;19;1657;-71
2022/11/22 08:30:38;;;;;;;;;;;;;;;20.89;66.61;100504.88;7403849;19;1353;-71
2022/11/22 08:33:09;;;;;;;;;;;;;;;21.49;64.83;100520.34;7401960;19;1848;-73
2022/11/22 08:35:37;;;;;;;;;;;;;;;21.71;64.12;100519.84;7405911;19;948;-73
2022/11/22 08:38:05;;;;;;;;;;;;;;;21.67;63.73;100513.09;7403867;19;1905;-74
2022/11/22 08:40:34;;;;;;;;;;;;;;;21.53;64.22;100503.75;7403793;19;1318;-75
2022/11/22 08:43:02;;;;;;;;;;;;;;;21.05;65.94;100505.91;7404243;19;1546;-72
2022/11/22 08:45:30;;;;;;;;;;;;;;;20.61;66.27;100519.25;7402775;19;1216;-74
2022/11/22 08:47:59;;;;;;;;;;;;;;;20.32;65.74;100500.59;7403186;19;1640;-73
2022/11/22 08:50:30;;;;;;;;;;;;;;;20.02;62.76;100499.09;7403896;19;1201;-71
2022/11/22 08:52:59;;;;;;;;;;;;;;;19.43;64.08;100526.06;7402643;19;1845;-63
2022/11/22 08:55:27;;;;;;;;;;;;;;;19.71;63.42;100515.44;7403201;19;1677;-73
2022/11/22 08:57:59;;;;;;;;;;;;;;;19.76;61.50;100510.47;7400020;19;1617;-66
2022/11/22 09:00:28;;;;;;;;;;;;;;;19.80;61.23;100501.16;7403436;19;1648;-69
2022/11/22 09:02:56;;;;;;;;;;;;;;;19.76;61.70;100523.91;7400336;19;1390;-68
2022/11/22 09:05:24;;;;;;;;;;;;;;;19.74;62.95;100499.06;7404279;19;1086;-68
2022/11/22 09:07:55;;;;;;;;;;;;;;;19.73;62.44;100494.66;7402418;19;1739;-70
2022/11/22 09:10:24;;;;;;;;;;;;;;;19.71;62.60;100493.09;7402616;19;1049;-67
2022/11/22 09:12:52;;;;;;;;;;;;;;;19.59;61.16;100489.75;7402306;19;1858;-70
2022/11/22 09:15:20;;;;;;;;;;;;;;;19.64;61.41;100488.31;7403099;19;1416;-69
2022/11/22 09:17:49;;;;;;;;;;;;;;;19.81;61.62;100494.78;7402321;19;1335;-70
2022/11/22 09:20:17;;;;;;;;;;;;;;;19.78;62.57;100495.09;7405394;19;1121;-69
2022/11/22 09:22:46;;;;;;;;;;;;;;;19.72;63.67;100506.41;7402559;19;1719;-69
2022/11/22 09:25:16;;;;;;;;;;;;;;;19.82;64.01;100509.06;7402320;19;1543;-68
2022/11/22 09:27:45;;;;;;;;;;;;;;;19.92;64.08;100509.03;7402815;19;1565;-67
2022/11/22 09:30:13;;;;;;;;;;;;;;;19.90;64.78;100508.31;7402207;19;1153;-58
2022/11/22 09:32:44;;;;;;;;;;;;;;;19.83;64.61;100511.56;7400705;19;1862;-56
2022/11/22 09:35:15;;;;;;;;;;;;;;;19.80;64.85;100508.34;7401863;19;1383;-57
2022/11/22 09:37:44;;;;;;;;;;;;;;;19.81;64.60;100505.50;7402044;19;1645;-57
2022/11/22 09:40:13;;;;;;;;;;;;;;;19.79;64.01;100480.66;7399801;19;1376;-59
2022/11/22 09:42:49;;;;;;;;;;;;;;;19.78;64.69;100495.09;7401252;19;1269;-70
2022/11/22 09:45:32;;;;;;;;;;;;;;;19.72;64.79;100490.31;7401268;19;1478;-70
2022/11/22 09:48:06;;;;;;;;;;;;;;;19.70;64.20;100492.25;7400372;19;1592;-58
2022/11/22 09:50:40;;;;;;;;;;;;;;;19.68;63.11;100476.31;7400973;19;1386;-68
2022/11/22 09:53:13;;;;;;;;;;;;;;;19.72;63.82;100478.75;7399990;19;1873;-76
2022/11/22 09:55:44;;;;;;;;;;;;;;;19.78;63.58;100483.50;7400959;19;1467;-70
2022/11/22 09:58:22;;;;;;;;;;;;;;;19.81;63.47;100483.19;7404178;19;1388;-73
2022/11/22 10:00:50;;;;;;;;;;;;;;;19.83;64.20;100489.25;7406751;19;1463;-72
2022/11/22 10:03:24;;;;;;;;;;;;;;;19.33;59.82;100468.94;7407631;19;1484;-70
2022/11/22 10:05:55;;;;;;;;;;;;;;;18.77;60.09;100467.84;7408853;19;1581;-69
2022/11/22 10:08:39;;;;;;;;;;;;;;;18.97;60.38;100454.47;7409374;19;1490;-70
2022/11/22 10:11:23;;;;;;;;;;;;;;;19.30;60.31;100458.50;7409718;19;951;-70
2022/11/22 10:13:57;;;;;;;;;;;;;;;19.50;60.23;100453.06;7408080;19;1823;-70
2022/11/22 10:16:31;;;;;;;;;;;;;;;19.60;61.07;100457.41;7409790;19;997;-70
2022/11/22 10:19:02;;;;;;;;;;;;;;;19.62;61.69;100446.56;7408834;19;1747;-70
2022/11/22 10:21:30;;;;;;;;;;;;;;;19.65;61.97;100435.50;7406602;19;1235;-70
2022/11/22 10:23:59;;;;;;;;;;;;;;;19.68;62.33;100436.06;7408193;19;1561;-70
2022/11/22 10:26:28;;;;;;;;;;;;;;;19.67;62.47;100429.00;7408978;19;1368;-71
2022/11/22 10:29:06;;;;;;;;;;;;;;;19.67;62.74;100433.53;7340576;19;14078;-70
2022/11/22 10:31:37;;;;;;;;;;;;;;;19.69;63.06;100436.91;7408713;19;1687;-70
2022/11/22 10:34:11;;;;;;;;;;;;;;;19.69;63.44;100436.91;7404586;19;1865;-71
2022/11/22 10:36:46;;;;;;;;;;;;;;;19.68;63.44;100436.06;7409369;19;1166;-71
2022/11/22 10:39:32;;;;;;;;;;;;;;;19.66;63.59;100440.72;7409150;19;1319;-71
2022/11/22 10:42:11;;;;;;;;;;;;;;;19.64;63.90;100437.34;7409119;19;1342;-71
2022/11/22 10:44:49;;;;;;;;;;;;;;;19.60;64.59;100427.09;7408092;19;1101;-72
2022/11/22 10:47:21;;;;;;;;;;;;;;;19.63;64.70;100441.03;7408670;19;1420;-70
2022/11/22 10:49:54;;;;;;;;;;;;;;;19.65;64.38;100436.34;7409051;19;1003;-70
2022/11/22 10:52:27;;;;;;;;;;;;;;;19.63;64.82;100440.19;7407345;19;1860;-69
2022/11/22 10:55:00;;;;;;;;;;;;;;;19.59;65.07;100442.31;7403911;19;1658;-69
2022/11/22 10:57:33;;;;;;;;;;;;;;;19.63;64.96;100450.91;7406097;19;1393;-68
2022/11/22 11:00:16;;;;;;;;;;;;;;;19.53;64.94;100442.91;7398297;19;1561;-65
2022/11/22 11:03:03;;;;;;;;;;;;;;;19.42;62.94;100446.63;7404171;19;1634;-57
2022/11/22 11:05:34;;;;;;;;;;;;;;;19.43;62.04;100437.56;7404060;19;1823;-58
2022/11/22 11:08:03;;;;;;;;;;;;;;;19.29;61.16;100421.94;7406135;19;1785;-57
2022/11/22 11:10:35;;;;;;;;;;;;;;;19.25;62.42;100410.66;7404480;19;1401;-57
2022/11/22 11:13:05;;;;;;;;;;;;;;;19.23;62.61;100407.28;7403507;19;1876;-57
2022/11/22 11:15:39;;;;;;;;;;;;;;;19.24;62.35;100416.19;7400371;19;1274;-57
2022/11/22 11:18:10;;;;;;;;;;;;;;;19.27;61.99;100422.09;7403553;19;1733;-57
2022/11/22 11:20:40;;;;;;;;;;;;;;;19.29;61.70;100408.53;7401695;19;1779;-57
2022/11/22 11:23:09;;;;;;;;;;;;;;;19.28;61.41;100412.25;7406415;19;1726;-57
2022/11/22 11:25:39;;;;;;;;;;;;;;;19.29;61.35;100403.19;7405580;19;1375;-57
2022/11/22 11:28:09;;;;;;;;;;;;;;;19.27;61.69;100383.72;7406554;19;1515;-57
2022/11/22 11:30:42;;;;;;;;;;;;;;;19.27;62.20;100378.34;7404977;19;1671;-57
2022/11/22 11:33:21;;;;;;;;;;;;;;;19.22;62.60;100372.63;7402986;19;1842;-58
2022/11/22 11:35:49;;;;;;;;;;;;;;;19.24;62.60;100363.41;7406531;19;1584;-57
2022/11/22 11:38:28;;;;;;;;;;;;;;;19.31;62.37;100361.00;7406224;19;1678;-58
2022/11/22 11:40:56;;;;;;;;;;;;;;;19.31;62.40;100361.00;7405716;19;1781;-57
2022/11/22 11:43:25;;;;;;;;;;;;;;;19.32;62.93;100367.19;7405904;19;1595;-58
2022/11/22 11:45:56;;;;;;;;;;;;;;;19.21;62.61;100354.81;7403665;19;1631;-58
2022/11/22 11:48:28;;;;;;;;;;;;;;;19.42;62.55;100360.81;7403751;19;1349;-57
2022/11/22 11:51:11;;;;;;;;;;;;;;;19.51;61.98;100342.13;7403635;19;1596;-66
2022/11/22 11:53:41;;;;;;;;;;;;;;;19.52;62.29;100338.44;7403493;19;1846;-72
2022/11/22 11:56:23;;;;;;;;;;;;;;;19.58;62.54;100343.25;7402253;19;1435;-64
2022/11/22 11:58:53;;;;;;;;;;;;;;;19.66;62.42;100336.13;7402739;19;1363;-73
2022/11/22 12:01:25;;;;;;;;;;;;;;;19.62;62.97;100333.91;7404301;19;1525;-57
2022/11/22 12:03:55;;;;;;;;;;;;;;;19.62;62.74;100340.09;7404061;19;1329;-57
2022/11/22 12:06:28;;;;;;;;;;;;;;;19.69;63.11;100345.69;7405123;19;1402;-67
2022/11/22 12:08:57;;;;;;;;;;;;;;;19.64;63.05;100334.59;7405569;19;1325;-55
2022/11/22 12:11:32;;;;;;;;;;;;;;;19.55;63.90;100346.19;7404631;19;1150;-57
2022/11/22 12:14:02;;;;;;;;;;;;;;;19.45;64.15;100339.03;7403595;19;1857;-66
2022/11/22 12:16:36;;;;;;;;;;;;;;;19.44;64.41;100333.84;7405882;19;1443;-65
2022/11/22 12:19:09;;;;;;;;;;;;;;;19.51;64.16;100347.50;7402116;19;1204;-67
2022/11/22 12:21:43;;;;;;;;;;;;;;;19.58;63.96;100353.97;7401295;19;1390;-59
2022/11/22 12:24:16;;;;;;;;;;;;;;;19.54;63.47;100341.84;7402304;19;1184;-73
2022/11/22 12:26:44;;;;;;;;;;;;;;;19.53;62.89;100345.50;7402401;19;1277;-71
2022/11/22 12:29:14;;;;;;;;;;;;;;;19.55;62.91;100335.47;7403504;19;1220;-75
2022/11/22 12:31:48;;;;;;;;;;;;;;;19.59;63.13;100340.38;7403394;19;1585;-58
2022/11/22 12:34:20;;;;;;;;;;;;;;;19.53;64.04;100351.72;7399560;19;1865;-58
2022/11/22 12:36:52;;;;;;;;;;;;;;;19.54;63.90;100349.91;7401655;19;1345;-58
2022/11/22 12:39:22;;;;;;;;;;;;;;;19.57;64.49;100347.75;7402962;19;1307;-58
2022/11/22 12:41:54;;;;;;;;;;;;;;;19.54;64.67;100357.94;7401177;19;1266;-57
2022/11/22 12:44:22;;;;;;;;;;;;;;;19.39;64.67;100349.53;7401575;19;1483;-57
2022/11/22 12:46:56;;;;;;;;;;;;;;;19.32;65.46;100354.66;7401191;19;1417;-57
2022/11/22 12:49:30;;;;;;;;;;;;;;;19.27;65.94;100351.56;7401689;19;1124;-57
2022/11/22 12:52:01;;;;;;;;;;;;;;;19.27;65.79;100354.22;7402415;19;1308;-57
2022/11/22 12:54:33;;;;;;;;;;;;;;;19.20;65.87;100335.22;7401713;19;1861;-57
2022/11/22 12:57:06;;;;;;;;;;;;;;;19.23;66.18;100344.78;7403281;19;1298;-56
2022/11/22 12:59:39;;;;;;;;;;;;;;;19.25;65.96;100342.81;7403001;19;1418;-78
2022/11/22 13:02:17;;;;;;;;;;;;;;;19.26;65.93;100333.78;7402122;19;1516;-77
2022/11/22 13:04:51;;;;;;;;;;;;;;;19.26;66.26;100339.16;7404146;19;1120;-75
2022/11/22 13:07:23;;;;;;;;;;;;;;;19.22;66.45;100348.50;7402960;19;1322;-76
2022/11/22 13:09:56;;;;;;;;;;;;;;;19.24;65.94;100341.97;7402106;19;1252;-69
2022/11/22 13:12:28;;;;;;;;;;;;;;;19.24;65.99;100346.50;7401390;19;1220;-71
2022/11/22 13:14:57;;;;;;;;;;;;;;;19.28;66.29;100356.78;7401604;19;1849;-71
2022/11/22 13:17:32;;;;;;;;;;;;;;;19.20;67.00;100347.75;7402559;19;1196;-72